Time;durP1;ratioP1;P1;durP2;ratioP2;P2;SDS_P1;SDS_P2;PMS_P1;PMS_P2;Temp;Humidity;BMP_temperature;BMP_pressure;BME280_temperature;BME280_humidity;BME280_pressure;Samples;Min_cycle;Max_cycle;Signal;HPM_P1;HPM_P2
2023/03/18 00:02:19;;;;;;;13.07;4.35;;;11.60;99.90;;;;;;6155601;23;20014;-94
2023/03/18 00:31:31;;;;;;;14.65;4.95;;;11.20;99.90;;;;;;6135537;23;20025;-92
2023/03/18 00:34:09;;;;;;;13.30;4.80;;;11.20;99.90;;;;;;6156662;23;20519;-92
2023/03/18 00:36:35;;;;;;;11.25;4.60;;;13.00;99.90;;;;;;6183742;23;20009;-92
2023/03/18 00:39:27;;;;;;;13.00;4.80;;;12.80;99.90;;;;;;6148838;23;20021;-92
2023/03/18 00:44:42;;;;;;;12.25;5.13;;;11.60;99.90;;;;;;6157774;23;20048;-91
2023/03/18 00:47:09;;;;;;;13.35;5.65;;;11.70;99.90;;;;;;6156426;23;20017;-92
2023/03/18 00:49:35;;;;;;;12.02;5.30;;;12.70;99.90;;;;;;6131058;23;20025;-93
2023/03/18 00:58:04;;;;;;;11.70;5.28;;;11.60;99.90;;;;;;6161492;23;19916;-92
2023/03/18 01:00:30;;;;;;;11.48;4.95;;;12.90;99.90;;;;;;6130963;23;20056;-93
2023/03/18 01:02:58;;;;;;;12.00;4.88;;;12.40;99.90;;;;;;6156097;23;20096;-92
2023/03/18 01:05:24;;;;;;;11.60;4.68;;;12.80;99.90;;;;;;6155538;23;20337;-92
2023/03/18 01:11:50;;;;;;;12.63;5.53;;;10.90;99.90;;;;;;6065394;23;20038;-93
2023/03/18 01:14:22;;;;;;;13.73;5.20;;;11.50;99.90;;;;;;6055692;23;20019;-92
2023/03/18 01:16:56;;;;;;;11.40;4.93;;;12.90;99.90;;;;;;6149018;23;20025;-93
2023/03/18 01:19:34;;;;;;;13.18;5.75;;;12.40;99.90;;;;;;6160195;23;20025;-93
2023/03/18 01:22:09;;;;;;;12.75;5.25;;;11.30;99.90;;;;;;6132643;23;20072;-93
2023/03/18 01:24:50;;;;;;;10.63;5.03;;;11.20;99.90;;;;;;6157231;23;20013;-93
2023/03/18 01:27:46;;;;;;;12.57;5.07;;;12.70;99.90;;;;;;6129370;23;20014;-93
2023/03/18 01:34:11;;;;;;;13.32;5.85;;;11.20;99.90;;;;;;6065238;23;20065;-93
2023/03/18 01:39:13;;;;;;;11.57;5.07;;;11.10;99.90;;;;;;6174399;23;20056;-93
2023/03/18 01:41:39;;;;;;;12.30;5.18;;;12.50;99.90;;;;;;6126068;23;20061;-92
2023/03/18 01:44:32;;;;;;;12.35;5.10;;;10.40;99.90;;;;;;6156055;23;20025;-92
2023/03/18 01:47:24;;;;;;;13.43;5.70;;;10.70;99.90;;;;;;6129171;23;20064;-92
2023/03/18 01:49:55;;;;;;;15.32;5.53;;;11.00;99.90;;;;;;6157060;23;20052;-92
2023/03/18 01:52:29;;;;;;;14.52;5.63;;;11.00;99.90;;;;;;6157372;23;20010;-92
2023/03/18 01:55:11;;;;;;;14.35;6.20;;;11.10;99.90;;;;;;6130754;23;20100;-92
2023/03/18 01:58:00;;;;;;;16.33;6.57;;;12.40;99.90;;;;;;6131111;23;20090;-91
2023/03/18 02:00:27;;;;;;;13.70;6.45;;;10.90;99.90;;;;;;6129356;23;20014;-91
2023/03/18 02:04:01;;;;;;;14.38;6.38;;;12.30;99.90;;;;;;6156338;23;20025;-91
2023/03/18 02:14:43;;;;;;;12.63;5.75;;;10.80;99.90;;;;;;6157169;23;20033;-92
2023/03/18 02:17:48;;;;;;;15.38;6.40;;;9.40;99.90;;;;;;6129292;23;20017;-92
2023/03/18 02:20:34;;;;;;;14.45;5.82;;;10.70;99.90;;;;;;6155664;23;20311;-92
2023/03/18 02:23:35;;;;;;;13.68;5.63;;;10.50;99.90;;;;;;6128546;23;20093;-92
2023/03/18 02:26:19;;;;;;;13.52;6.05;;;10.60;99.90;;;;;;6130985;23;20029;-92
2023/03/18 02:28:50;;;;;;;14.93;6.90;;;10.50;99.90;;;;;;6127927;23;20032;-93
2023/03/18 02:33:55;;;;;;;13.27;6.57;;;10.40;99.90;;;;;;6127074;23;20022;-92
2023/03/18 02:36:27;;;;;;;13.95;6.65;;;9.60;99.90;;;;;;6109089;23;20128;-93
2023/03/18 02:47:47;;;;;;;15.38;6.55;;;10.30;99.90;;;;;;6155697;23;20022;-93
2023/03/18 02:50:16;;;;;;;16.48;6.97;;;11.70;99.90;;;;;;6156658;23;20041;-93
2023/03/18 02:52:51;;;;;;;13.93;7.20;;;10.20;99.90;;;;;;6156898;23;20080;-93
2023/03/18 02:55:22;;;;;;;17.77;8.32;;;11.70;99.90;;;;;;6156732;23;20113;-93
2023/03/18 02:57:57;;;;;;;17.08;8.07;;;10.20;99.90;;;;;;6130538;23;20023;-92
2023/03/18 03:00:32;;;;;;;14.65;7.03;;;11.50;99.90;;;;;;6131288;23;20014;-93
2023/03/18 03:03:01;;;;;;;18.77;8.10;;;11.10;99.90;;;;;;6156546;23;20025;-93
2023/03/18 03:05:32;;;;;;;15.02;7.32;;;11.20;99.90;;;;;;6156357;23;20092;-93
2023/03/18 03:07:58;;;;;;;12.88;6.30;;;11.10;99.90;;;;;;6130528;23;20361;-93
2023/03/18 03:10:36;;;;;;;13.13;6.05;;;10.30;99.90;;;;;;6131174;23;20014;-94
2023/03/18 03:13:02;;;;;;;13.93;6.10;;;11.40;99.90;;;;;;6129888;23;20020;-93
2023/03/18 03:15:28;;;;;;;15.40;6.55;;;11.10;99.90;;;;;;6157593;23;20096;-93
2023/03/18 03:17:56;;;;;;;13.98;6.60;;;10.20;99.90;;;;;;6156123;23;20101;-93
2023/03/18 03:20:36;;;;;;;14.68;7.20;;;11.20;99.90;;;;;;6130754;23;20346;-93
2023/03/18 03:23:23;;;;;;;12.40;6.70;;;11.60;99.90;;;;;;6130563;23;20021;-93
2023/03/18 03:26:04;;;;;;;12.60;6.97;;;9.60;99.90;;;;;;6130175;23;20120;-93
2023/03/18 03:44:35;;;;;;;14.00;6.85;;;9.70;99.90;;;;;;6188485;23;20028;-94
2023/03/18 03:47:22;;;;;;;16.73;7.15;;;10.90;99.90;;;;;;6216766;23;20020;-93
2023/03/18 03:49:55;;;;;;;14.60;7.90;;;10.30;99.90;;;;;;6191322;23;20013;-94
2023/03/18 03:52:32;;;;;;;14.90;7.60;;;9.50;99.90;;;;;;6204201;23;20009;-92
2023/03/18 03:54:59;;;;;;;14.65;7.45;;;9.20;99.90;;;;;;6129976;23;20068;-93
2023/03/18 04:04:01;;;;;;;15.95;7.50;;;9.70;99.90;;;;;;6156123;23;20093;-94
2023/03/18 04:18:26;;;;;;;17.03;8.10;;;9.70;99.90;;;;;;6156349;23;20012;-93
2023/03/18 04:24:48;;;;;;;16.40;8.18;;;9.20;99.90;;;;;;6157697;23;20468;-94
2023/03/18 04:27:21;;;;;;;16.25;8.38;;;10.90;99.90;;;;;;6179904;23;20005;-93
2023/03/18 04:29:53;;;;;;;15.25;8.30;;;10.80;99.90;;;;;;6177241;23;20088;-94
2023/03/18 04:32:37;;;;;;;16.15;8.35;;;10.80;99.90;;;;;;6134689;23;20028;-94
2023/03/18 04:35:28;;;;;;;15.35;8.70;;;10.70;99.90;;;;;;6131217;23;20408;-94
2023/03/18 04:38:12;;;;;;;17.70;7.97;;;9.20;99.90;;;;;;6155898;23;20021;-94
2023/03/18 04:40:41;;;;;;;16.95;8.77;;;9.60;99.90;;;;;;6157015;23;20036;-93
2023/03/18 04:43:10;;;;;;;16.67;9.25;;;10.40;99.90;;;;;;6155573;23;20389;-94
2023/03/18 04:45:51;;;;;;;15.88;8.52;;;10.70;99.90;;;;;;6151525;23;20468;-94
2023/03/18 04:48:37;;;;;;;17.33;8.98;;;9.10;99.90;;;;;;6132058;23;20433;-93
2023/03/18 04:51:08;;;;;;;15.70;9.15;;;7.90;99.90;;;;;;6138811;23;20017;-93
2023/03/18 04:53:50;;;;;;;15.95;8.65;;;10.10;99.90;;;;;;6156737;23;20053;-94
2023/03/18 04:56:25;;;;;;;16.60;8.88;;;8.70;99.90;;;;;;6129586;23;20080;-93
2023/03/18 04:58:50;;;;;;;15.05;9.05;;;9.90;99.90;;;;;;6130425;23;20029;-93
2023/03/18 05:06:01;;;;;;;15.93;9.15;;;9.10;99.90;;;;;;6154562;23;20536;-94
2023/03/18 05:08:28;;;;;;;19.48;9.90;;;9.10;99.90;;;;;;6130879;23;20022;-93
2023/03/18 05:11:06;;;;;;;17.73;10.30;;;9.30;99.90;;;;;;6155764;23;20075;-93
2023/03/18 05:13:55;;;;;;;17.95;9.90;;;9.00;99.90;;;;;;6157741;23;20013;-93
2023/03/18 05:16:22;;;;;;;19.77;9.85;;;9.90;99.90;;;;;;6156632;23;20021;-93
2023/03/18 05:18:53;;;;;;;17.65;10.48;;;10.70;99.90;;;;;;6129287;23;20009;-94
2023/03/18 05:21:22;;;;;;;18.05;11.02;;;9.10;99.90;;;;;;6129619;23;20069;-94
2023/03/18 05:24:03;;;;;;;20.60;11.45;;;10.40;99.90;;;;;;6129889;23;20013;-93
2023/03/18 05:26:29;;;;;;;22.08;11.75;;;9.30;99.90;;;;;;6155043;23;20017;-94
2023/03/18 05:29:23;;;;;;;19.83;11.27;;;10.50;99.90;;;;;;6127837;23;20031;-93
2023/03/18 05:31:57;;;;;;;21.20;11.18;;;9.30;99.90;;;;;;6129258;23;20310;-93
2023/03/18 05:34:30;;;;;;;20.15;12.32;;;10.80;99.90;;;;;;6156262;23;20009;-93
2023/03/18 05:37:14;;;;;;;19.97;12.07;;;8.80;99.90;;;;;;6156520;23;20052;-93
2023/03/18 05:39:55;;;;;;;20.43;12.30;;;9.40;99.90;;;;;;6129678;23;20393;-93
2023/03/18 05:42:27;;;;;;;19.67;12.33;;;10.90;99.90;;;;;;6129444;23;20016;-93
2023/03/18 05:45:12;;;;;;;;;;;;;;;;;;;;;
2023/03/18 05:47:44;;;;;;;27.52;16.05;;;9.30;99.90;;;;;;6154182;23;20028;-93
2023/03/18 05:50:52;;;;;;;26.73;15.63;;;10.50;99.90;;;;;;6155972;23;20040;-93
2023/03/18 05:53:23;;;;;;;23.48;14.07;;;9.30;99.90;;;;;;6121134;23;20112;-94
2023/03/18 05:56:04;;;;;;;25.25;13.65;;;10.10;99.90;;;;;;6129763;23;20521;-94
2023/03/18 05:58:42;;;;;;;21.42;12.20;;;9.40;99.90;;;;;;6128846;23;20022;-93
2023/03/18 06:09:12;;;;;;;19.38;11.48;;;9.40;99.90;;;;;;6158514;23;20025;-93
2023/03/18 06:14:16;;;;;;;20.33;11.70;;;9.30;99.90;;;;;;6168675;23;19916;-93
2023/03/18 06:17:31;;;;;;;19.30;11.63;;;9.30;99.90;;;;;;6157830;23;20021;-93
2023/03/18 06:19:58;;;;;;;17.33;10.90;;;9.40;99.90;;;;;;6155214;23;20071;-93
2023/03/18 06:22:25;;;;;;;22.75;12.23;;;9.20;99.90;;;;;;6128583;23;20025;-94
2023/03/18 06:24:52;;;;;;;22.20;11.30;;;9.80;99.90;;;;;;6129657;23;20070;-93
2023/03/18 06:27:41;;;;;;;19.13;11.20;;;10.30;99.90;;;;;;6155424;23;20100;-93
2023/03/18 06:30:14;;;;;;;21.77;11.80;;;9.30;99.90;;;;;;6155181;23;20163;-92
2023/03/18 06:32:52;;;;;;;20.70;11.20;;;9.30;99.90;;;;;;6161701;23;20037;-93
2023/03/18 06:35:26;;;;;;;18.80;10.93;;;9.50;99.90;;;;;;6181607;23;20009;-93
2023/03/18 06:37:56;;;;;;;20.65;10.73;;;10.80;99.90;;;;;;6182847;23;20008;-94
2023/03/18 06:40:23;;;;;;;18.75;10.60;;;9.20;99.90;;;;;;6180113;23;20017;-93
2023/03/18 06:42:52;;;;;;;21.48;10.98;;;9.50;99.90;;;;;;6131079;23;20341;-93
2023/03/18 06:45:21;;;;;;;23.00;11.10;;;10.70;99.90;;;;;;6131591;23;20021;-82
2023/03/18 06:47:53;;;;;;;20.30;11.10;;;9.50;99.90;;;;;;6128859;23;20450;-82
2023/03/18 06:50:30;;;;;;;20.02;11.25;;;10.00;99.90;;;;;;6127686;23;20020;-81
2023/03/18 06:52:57;;;;;;;17.65;10.05;;;8.70;99.90;;;;;;6128977;23;20115;-80
2023/03/18 06:55:26;;;;;;;19.25;10.73;;;9.50;99.90;;;;;;6128282;23;20014;-80
2023/03/18 06:57:53;;;;;;;19.25;10.55;;;11.10;99.90;;;;;;6147617;23;20020;-82
2023/03/18 07:00:20;;;;;;;18.00;10.57;;;10.20;99.90;;;;;;6154844;23;20068;-82
2023/03/18 07:02:46;;;;;;;17.02;11.10;;;9.80;99.90;;;;;;6154646;23;20025;-81
2023/03/18 07:05:12;;;;;;;17.80;10.23;;;9.90;99.90;;;;;;6153728;23;20025;-80
2023/03/18 07:07:39;;;;;;;20.35;11.18;;;10.80;99.90;;;;;;6128902;23;20354;-80
2023/03/18 07:10:08;;;;;;;18.65;11.07;;;10.10;99.90;;;;;;6153634;23;20032;-81
2023/03/18 07:12:33;;;;;;;18.17;10.75;;;10.00;99.90;;;;;;6130174;23;20017;-81
2023/03/18 07:14:59;;;;;;;19.23;10.90;;;10.10;99.90;;;;;;6128537;23;20033;-82
2023/03/18 07:31:44;;;;;;;21.88;13.20;;;10.30;99.90;;;;;;6157889;23;20032;-81
2023/03/18 07:34:27;;;;;;;23.25;13.20;;;10.30;99.90;;;;;;6129014;23;20055;-81
2023/03/18 07:37:04;;;;;;;22.88;13.32;;;10.30;99.90;;;;;;6156096;23;20018;-81
2023/03/18 07:39:33;;;;;;;27.63;15.05;;;10.40;99.90;;;;;;6155323;23;20017;-81
2023/03/18 07:41:59;;;;;;;25.75;15.27;;;10.40;99.90;;;;;;6156673;23;20017;-82
2023/03/18 07:44:25;;;;;;;29.92;20.02;;;11.80;99.90;;;;;;6130363;23;20101;-81
2023/03/18 07:46:51;;;;;;;26.67;15.60;;;10.50;99.90;;;;;;6128783;23;20021;-81
2023/03/18 07:49:30;;;;;;;37.88;24.15;;;10.50;99.90;;;;;;6129424;23;20025;-81
2023/03/18 07:51:56;;;;;;;47.90;30.65;;;10.50;99.90;;;;;;6129463;23;20079;-82
2023/03/18 07:54:23;;;;;;;52.60;33.78;;;10.50;99.90;;;;;;6155389;23;20013;-81
2023/03/18 07:56:51;;;;;;;25.25;16.80;;;11.00;99.90;;;;;;6156136;23;20022;-81
2023/03/18 07:59:16;;;;;;;29.00;18.20;;;11.60;99.90;;;;;;6129145;23;20104;-82
2023/03/18 08:01:42;;;;;;;33.20;24.25;;;11.10;99.90;;;;;;6129665;23;20111;-81
2023/03/18 08:04:09;;;;;;;28.75;20.65;;;10.50;99.90;;;;;;6129169;23;20028;-82
2023/03/18 08:06:36;;;;;;;32.67;23.80;;;10.50;99.90;;;;;;6155022;23;20013;-82
2023/03/18 08:09:02;;;;;;;34.55;23.50;;;11.70;99.90;;;;;;6133625;23;20021;-82
2023/03/18 08:11:39;;;;;;;32.30;20.65;;;10.50;99.90;;;;;;6157862;23;20446;-82
2023/03/18 08:14:05;;;;;;;34.95;25.10;;;10.60;99.90;;;;;;6156207;23;20485;-82
2023/03/18 08:16:30;;;;;;;34.88;20.83;;;12.10;99.90;;;;;;6131307;23;20025;-81
2023/03/18 08:19:02;;;;;;;32.95;22.55;;;12.00;99.90;;;;;;6157377;23;20373;-82
2023/03/18 08:21:29;;;;;;;31.02;18.50;;;10.90;99.90;;;;;;6155473;23;20023;-82
2023/03/18 08:23:55;;;;;;;30.33;19.50;;;10.90;99.90;;;;;;6155773;23;20100;-82
2023/03/18 08:29:43;;;;;;;29.60;19.25;;;10.50;99.90;;;;;;6155421;23;20032;-82
2023/03/18 08:32:24;;;;;;;30.60;18.67;;;10.60;99.90;;;;;;6129566;23;20017;-82
2023/03/18 08:35:05;;;;;;;34.63;23.55;;;10.30;99.90;;;;;;6155085;23;20018;-82
2023/03/18 08:37:32;;;;;;;47.67;31.13;;;10.70;99.90;;;;;;6155366;23;20022;-82
2023/03/18 08:39:58;;;;;;;34.30;21.75;;;10.70;99.90;;;;;;6128760;23;20311;-82
2023/03/18 08:42:35;;;;;;;34.78;22.98;;;11.40;99.90;;;;;;6155150;23;20082;-82
2023/03/18 08:45:07;;;;;;;34.53;24.02;;;10.30;99.90;;;;;;6129303;23;20009;-82
2023/03/18 08:47:47;;;;;;;26.30;19.73;;;11.10;99.90;;;;;;6129509;23;20020;-82
2023/03/18 08:50:19;;;;;;;32.72;22.48;;;11.30;99.90;;;;;;6154788;23;20017;-82
2023/03/18 08:52:46;;;;;;;33.30;20.00;;;11.30;99.90;;;;;;6156223;23;20045;-82
2023/03/18 08:55:11;;;;;;;30.58;19.73;;;11.20;99.90;;;;;;6155645;23;20068;-82
2023/03/18 08:57:37;;;;;;;31.95;20.25;;;11.50;99.90;;;;;;6155013;23;20021;-82
2023/03/18 09:00:06;;;;;;;27.15;18.55;;;12.90;99.90;;;;;;6127471;23;20075;-82
2023/03/18 09:02:32;;;;;;;27.92;18.20;;;11.60;99.90;;;;;;6128391;23;20014;-82
2023/03/18 09:04:58;;;;;;;27.65;19.38;;;12.00;99.90;;;;;;6154760;23;20512;-82
2023/03/18 09:07:23;;;;;;;31.23;18.15;;;12.00;99.90;;;;;;6128975;23;20104;-82
2023/03/18 09:09:49;;;;;;;28.88;19.73;;;11.80;99.90;;;;;;6154752;23;20104;-82
2023/03/18 09:12:15;;;;;;;30.08;18.98;;;11.90;99.90;;;;;;6128991;23;20076;-83
2023/03/18 09:14:42;;;;;;;28.70;18.67;;;12.00;99.90;;;;;;6155802;23;20081;-83
2023/03/18 09:17:08;;;;;;;25.73;17.15;;;12.90;99.90;;;;;;6154289;23;20508;-82
2023/03/18 09:19:34;;;;;;;27.45;18.17;;;12.70;99.90;;;;;;6155863;23;20014;-83
2023/03/18 09:22:00;;;;;;;28.02;18.65;;;13.20;99.90;;;;;;6128667;23;20022;-82
2023/03/18 09:24:26;;;;;;;26.27;18.10;;;13.40;99.90;;;;;;6125987;23;20307;-81
2023/03/18 09:26:54;;;;;;;28.33;17.17;;;12.90;99.90;;;;;;6155068;23;20024;-81
2023/03/18 09:29:20;;;;;;;29.67;17.65;;;13.20;99.90;;;;;;6127889;23;20049;-82
2023/03/18 09:31:46;;;;;;;27.27;17.98;;;14.20;99.90;;;;;;6127185;23;20076;-81
2023/03/18 09:34:12;;;;;;;26.65;18.20;;;13.30;99.90;;;;;;6129011;23;20051;-82
2023/03/18 09:36:38;;;;;;;25.88;17.90;;;13.40;99.90;;;;;;6176576;23;20032;-81
2023/03/18 09:39:05;;;;;;;27.05;17.77;;;13.40;99.90;;;;;;6145646;23;20013;-82
2023/03/18 09:42:15;;;;;;;24.63;16.88;;;13.60;99.90;;;;;;6158466;23;20016;-82
2023/03/18 09:44:42;;;;;;;26.08;16.33;;;13.50;99.90;;;;;;6064760;23;20019;-82
2023/03/18 09:47:14;;;;;;;26.02;15.95;;;14.70;99.90;;;;;;6113008;23;20334;-82
2023/03/18 09:52:41;;;;;;;22.90;15.02;;;13.40;99.90;;;;;;6148672;23;20021;-81
2023/03/18 09:55:28;;;;;;;23.58;16.13;;;13.50;99.90;;;;;;6128726;23;20022;-80
2023/03/18 09:58:03;;;;;;;22.95;15.70;;;13.30;99.90;;;;;;6128982;23;20013;-82
2023/03/18 10:00:36;;;;;;;23.95;15.70;;;14.20;99.90;;;;;;6153751;23;20021;-81
2023/03/18 10:03:08;;;;;;;21.92;15.23;;;14.10;99.90;;;;;;6154735;23;20009;-83
2023/03/18 10:05:48;;;;;;;23.15;16.17;;;14.20;99.90;;;;;;6128950;23;20092;-83
2023/03/18 10:08:54;;;;;;;20.73;13.82;;;14.60;99.90;;;;;;6128643;23;20022;-83
2023/03/18 10:11:41;;;;;;;24.15;17.35;;;13.80;99.90;;;;;;6126935;23;20017;-83
2023/03/18 10:14:18;;;;;;;20.75;12.77;;;14.10;99.90;;;;;;6153943;23;20021;-83
2023/03/18 10:17:05;;;;;;;19.40;11.95;;;14.00;99.90;;;;;;6131369;23;20013;-82
2023/03/18 10:19:33;;;;;;;19.33;13.05;;;14.10;99.90;;;;;;6160241;23;20030;-83
2023/03/18 10:22:29;;;;;;;19.63;11.88;;;14.10;99.90;;;;;;6127850;23;20024;-82
2023/03/18 10:25:06;;;;;;;20.33;11.43;;;14.40;99.90;;;;;;6155381;23;20021;-83
2023/03/18 10:27:58;;;;;;;16.00;9.88;;;14.50;99.90;;;;;;6154109;23;20450;-82
2023/03/18 10:44:06;;;;;;;16.75;11.63;;;13.70;99.90;;;;;;6063011;23;20470;-83
2023/03/18 10:57:18;;;;;;;30.90;20.80;;;13.90;99.90;;;;;;6153458;23;20031;-82
2023/03/18 10:59:44;;;;;;;35.20;23.17;;;14.90;99.90;;;;;;6155064;23;20123;-81
2023/03/18 11:02:35;;;;;;;33.88;24.17;;;13.80;99.90;;;;;;6153204;23;20476;-81
2023/03/18 11:05:27;;;;;;;24.17;19.27;;;13.90;99.90;;;;;;6117364;23;20022;-82
2023/03/18 11:08:04;;;;;;;15.63;10.25;;;14.00;99.90;;;;;;6156915;23;20021;-84
2023/03/18 11:13:54;;;;;;;18.27;13.88;;;14.60;99.90;;;;;;6156969;23;20056;-84
2023/03/18 11:16:59;;;;;;;16.40;10.90;;;15.00;99.90;;;;;;6094012;23;20021;-84
2023/03/18 11:19:47;;;;;;;16.52;11.20;;;14.90;99.90;;;;;;6132260;23;20330;-84
2023/03/18 11:22:23;;;;;;;16.27;10.23;;;15.00;99.90;;;;;;6130378;23;20013;-85
2023/03/18 11:25:28;;;;;;;15.85;10.30;;;15.20;99.90;;;;;;6155761;23;20025;-85
2023/03/18 11:28:32;;;;;;;15.68;9.88;;;15.20;99.90;;;;;;6130751;23;20017;-84
2023/03/18 11:31:26;;;;;;;16.00;10.63;;;15.10;99.90;;;;;;6129612;23;20057;-83
2023/03/18 11:34:09;;;;;;;16.67;9.60;;;15.10;99.90;;;;;;6130824;23;20024;-84
2023/03/18 11:36:54;;;;;;;14.98;9.20;;;14.90;99.90;;;;;;6157119;23;20018;-84
2023/03/18 11:39:24;;;;;;;14.68;8.95;;;15.30;99.90;;;;;;6155724;23;20010;-82
2023/03/18 11:41:59;;;;;;;14.85;9.35;;;15.60;99.90;;;;;;6130603;23;20049;-83
2023/03/18 11:44:37;;;;;;;15.02;9.90;;;16.10;99.90;;;;;;6129679;23;20010;-83
2023/03/18 11:47:13;;;;;;;15.57;10.35;;;16.50;99.90;;;;;;6130566;23;20010;-82
2023/03/18 11:49:45;;;;;;;15.00;9.30;;;16.60;99.90;;;;;;6135200;23;20029;-83
2023/03/18 12:07:31;;;;;;;14.73;9.10;;;17.00;99.90;;;;;;6155288;23;20018;-83
2023/03/18 12:13:43;;;;;;;14.68;9.77;;;17.30;99.90;;;;;;6152314;23;20471;-84
2023/03/18 12:16:35;;;;;;;18.67;9.82;;;17.30;99.90;;;;;;6128837;23;20022;-83
2023/03/18 12:19:18;;;;;;;17.48;11.32;;;16.90;99.90;;;;;;6155736;23;20017;-83
2023/03/18 12:22:16;;;;;;;18.38;11.85;;;16.60;99.90;;;;;;6155192;23;20029;-83
2023/03/18 12:25:21;;;;;;;16.00;10.27;;;16.30;99.90;;;;;;6117060;23;20017;-83
2023/03/18 12:33:21;;;;;;;19.27;13.43;;;16.00;99.90;;;;;;6154858;23;20024;-83
2023/03/18 12:36:31;;;;;;;21.70;14.73;;;15.90;99.90;;;;;;6129183;23;20017;-83
2023/03/18 12:39:23;;;;;;;15.88;11.07;;;15.90;99.90;;;;;;6065658;23;20018;-83
2023/03/18 12:42:02;;;;;;;16.75;10.13;;;16.00;99.90;;;;;;6057455;23;20054;-82
2023/03/18 12:45:01;;;;;;;15.32;9.98;;;16.10;99.90;;;;;;6112448;23;20021;-83
2023/03/18 12:48:15;;;;;;;13.40;9.30;;;16.10;99.90;;;;;;6131608;23;20022;-83
2023/03/18 12:50:46;;;;;;;13.45;9.05;;;16.10;99.90;;;;;;6097842;23;20076;-83
2023/03/18 12:53:34;;;;;;;12.75;8.40;;;16.10;99.90;;;;;;6129666;23;20006;-82
2023/03/18 12:58:30;;;;;;;17.98;8.75;;;16.30;99.90;;;;;;6153550;23;20030;-83
2023/03/18 13:01:54;;;;;;;12.40;7.55;;;16.50;99.90;;;;;;6156216;23;20079;-83
2023/03/18 13:10:36;;;;;;;10.57;6.07;;;16.40;99.90;;;;;;6127472;23;20025;-83
2023/03/18 13:13:12;;;;;;;10.25;5.90;;;16.60;99.90;;;;;;6129231;23;20025;-82
2023/03/18 13:15:48;;;;;;;10.35;5.47;;;17.00;99.90;;;;;;6155380;23;20100;-82
2023/03/18 13:18:28;;;;;;;10.00;5.60;;;17.30;99.90;;;;;;6159567;23;20017;-83
2023/03/18 13:20:57;;;;;;;9.98;5.45;;;18.10;99.90;;;;;;6129454;23;20504;-83
2023/03/18 13:24:09;;;;;;;12.63;5.75;;;17.50;99.90;;;;;;6155065;23;20016;-84
2023/03/18 13:27:00;;;;;;;9.95;5.40;;;17.60;99.90;;;;;;6155624;23;20018;-82
2023/03/18 13:29:35;;;;;;;11.63;5.90;;;17.60;99.90;;;;;;6129668;23;20028;-83
2023/03/18 13:32:46;;;;;;;9.93;5.00;;;17.50;99.90;;;;;;6154367;23;20022;-86
2023/03/18 13:39:35;;;;;;;10.05;4.53;;;17.50;99.90;;;;;;6128083;23;20096;-85
2023/03/18 13:42:36;;;;;;;11.38;4.57;;;17.90;99.90;;;;;;6128042;23;20446;-86
2023/03/18 14:15:44;;;;;;;9.65;4.60;;;17.40;99.90;;;;;;6187003;23;20452;-87
2023/03/18 14:20:45;;;;;;;9.55;4.28;;;17.30;99.90;;;;;;6163840;23;20048;-87
2023/03/18 14:27:28;;;;;;;10.80;4.68;;;17.00;99.90;;;;;;6171874;23;20041;-86
2023/03/18 14:30:45;;;;;;;9.90;4.35;;;16.90;99.90;;;;;;6134554;23;20020;-86
2023/03/18 14:44:27;;;;;;;9.60;4.53;;;17.20;99.90;;;;;;6156699;23;20028;-89
2023/03/18 14:46:54;;;;;;;9.02;4.57;;;17.10;99.90;;;;;;6155408;23;20125;-88
2023/03/18 14:50:25;;;;;;;12.10;4.20;;;17.10;99.90;;;;;;6164592;23;20024;-88
2023/03/18 14:57:29;;;;;;;9.20;4.10;;;16.80;99.90;;;;;;5981715;24;20092;-87
2023/03/18 15:04:21;;;;;;;9.40;3.42;;;16.70;99.90;;;;;;5980689;24;20024;-90
2023/03/18 15:27:52;;;;;;;;;;;;;;;;;;;;;
2023/03/18 15:34:46;;;;;;;;;;;;;;;;;;;;;
2023/03/18 16:04:00;;;;;;;9.05;3.80;;;15.30;99.90;;;;;;6006159;23;20131;-84
2023/03/18 16:06:40;;;;;;;10.65;4.45;;;15.50;99.90;;;;;;6004477;23;20491;-83
2023/03/18 16:16:27;;;;;;;10.27;3.95;;;14.30;99.90;;;;;;5888957;24;20029;-87
2023/03/18 16:19:01;;;;;;;12.07;5.82;;;14.70;99.90;;;;;;5880641;24;20029;-86
2023/03/18 16:29:40;;;;;;;12.60;6.78;;;14.20;99.90;;;;;;5107258;28;20038;-83
2023/03/18 16:32:24;;;;;;;10.85;5.40;;;14.40;99.90;;;;;;5090581;28;20082;-82
2023/03/18 16:35:24;;;;;;;14.15;6.57;;;13.90;99.90;;;;;;5090432;28;20075;-82
2023/03/18 16:38:19;;;;;;;13.45;8.65;;;13.90;99.90;;;;;;5086493;22;20048;-83
2023/03/18 16:54:32;;;;;;;11.60;5.15;;;13.70;99.90;;;;;;4942230;28;20402;-85
2023/03/18 16:57:22;;;;;;;14.02;5.60;;;13.60;99.90;;;;;;4949457;28;20398;-84
2023/03/18 16:59:51;;;;;;;10.32;4.78;;;13.40;99.90;;;;;;4960791;28;20054;-85
2023/03/18 17:06:13;;;;;;;10.10;4.72;;;13.10;99.90;;;;;;4963554;28;20085;-85
2023/03/18 17:08:58;;;;;;;10.77;5.20;;;12.80;99.90;;;;;;4979340;28;20070;-84
2023/03/18 17:11:27;;;;;;;12.07;5.65;;;12.90;99.90;;;;;;4958633;28;20049;-84
2023/03/18 17:14:22;;;;;;;9.68;4.28;;;12.70;99.90;;;;;;4951885;28;20047;-84
2023/03/18 17:17:10;;;;;;;10.18;4.20;;;12.70;99.90;;;;;;4950010;28;20102;-84
2023/03/18 17:19:36;;;;;;;9.65;4.20;;;12.70;99.90;;;;;;4942492;28;20513;-84
2023/03/18 17:32:23;;;;;;;8.95;4.00;;;12.40;99.90;;;;;;5610529;23;20054;-84
2023/03/18 17:35:24;;;;;;;9.30;3.90;;;12.60;99.90;;;;;;4960260;28;20054;-84
2023/03/18 17:38:02;;;;;;;13.90;7.22;;;12.40;99.90;;;;;;5208152;23;20054;-84
2023/03/18 17:40:29;;;;;;;22.00;14.18;;;12.30;99.90;;;;;;5001155;28;20113;-83
2023/03/18 17:42:55;;;;;;;12.85;6.53;;;13.20;99.90;;;;;;5002881;28;20098;-84
2023/03/18 17:45:30;;;;;;;13.00;6.00;;;13.10;99.90;;;;;;5002436;28;20054;-84
2023/03/18 17:48:47;;;;;;;11.80;5.70;;;12.30;99.90;;;;;;5320059;23;20284;-84
2023/03/18 18:04:48;;;;;;;10.73;4.63;;;11.90;99.90;;;;;;5000165;28;20073;-87
2023/03/18 18:07:20;;;;;;;10.52;5.00;;;12.00;99.90;;;;;;4989777;28;20038;-87
2023/03/18 18:09:48;;;;;;;11.57;4.95;;;13.30;99.90;;;;;;5001507;28;20137;-86
2023/03/18 18:12:21;;;;;;;10.75;5.97;;;13.30;99.90;;;;;;5006625;28;20042;-87
2023/03/18 18:14:48;;;;;;;10.63;5.30;;;13.30;99.90;;;;;;5001927;28;20035;-87
2023/03/18 18:17:23;;;;;;;11.10;5.93;;;13.00;99.90;;;;;;5217529;23;20148;-87
2023/03/18 18:20:03;;;;;;;10.75;5.10;;;12.40;99.90;;;;;;5001592;28;20056;-88
2023/03/18 18:22:35;;;;;;;11.85;5.35;;;11.90;99.90;;;;;;5001461;28;20073;-87
2023/03/18 18:25:28;;;;;;;11.43;5.50;;;13.00;99.90;;;;;;5000204;28;20125;-87
2023/03/18 18:28:00;;;;;;;9.95;5.15;;;11.80;99.90;;;;;;4971812;28;20065;-87
2023/03/18 18:30:27;;;;;;;9.95;5.13;;;13.00;99.90;;;;;;4984839;28;20081;-88
2023/03/18 18:33:11;;;;;;;11.20;5.43;;;11.70;99.90;;;;;;4979771;28;20041;-89
2023/03/18 18:35:37;;;;;;;10.52;5.03;;;12.70;99.90;;;;;;5006520;28;20092;-94
2023/03/18 18:38:03;;;;;;;12.23;5.13;;;12.40;99.90;;;;;;4993670;28;20125;-95
2023/03/18 18:43:05;;;;;;;11.15;5.22;;;11.40;99.90;;;;;;5027344;23;20054;-96
2023/03/18 18:45:48;;;;;;;11.30;5.20;;;12.50;99.90;;;;;;5001366;28;20109;-96
2023/03/18 18:48:33;;;;;;;10.20;5.15;;;12.20;99.90;;;;;;5015481;28;20042;-96
2023/03/18 18:51:03;;;;;;;11.65;5.05;;;11.10;99.90;;;;;;5016421;28;20056;-96
2023/03/18 18:53:39;;;;;;;10.45;4.95;;;10.60;99.90;;;;;;5032171;28;20049;-96
2023/03/18 18:56:30;;;;;;;11.95;5.75;;;12.30;99.90;;;;;;5020377;28;20049;-94
2023/03/18 18:58:58;;;;;;;9.65;5.15;;;10.70;99.90;;;;;;5021284;28;20528;-96
2023/03/18 19:01:30;;;;;;;11.20;5.53;;;12.10;99.90;;;;;;5019608;28;20049;-96
2023/03/18 19:04:15;;;;;;;11.07;5.70;;;10.60;99.90;;;;;;4991652;28;20481;-95
2023/03/18 19:06:49;;;;;;;10.30;5.68;;;11.80;99.90;;;;;;5015333;28;20412;-96
2023/03/18 19:09:22;;;;;;;12.40;6.20;;;10.20;99.90;;;;;;5381248;23;20382;-95
2023/03/18 19:15:34;;;;;;;11.68;6.50;;;10.30;99.90;;;;;;4978819;28;20501;-96
2023/03/18 19:21:41;;;;;;;14.35;8.73;;;10.10;99.90;;;;;;5027023;28;20042;-95
2023/03/18 19:24:35;;;;;;;14.60;8.45;;;11.10;99.90;;;;;;5027947;28;20041;-95
2023/03/18 19:27:24;;;;;;;14.35;8.55;;;10.00;99.90;;;;;;4997533;28;20100;-96
2023/03/18 19:29:52;;;;;;;15.05;8.43;;;11.10;99.90;;;;;;4989347;28;20045;-96
2023/03/18 19:32:30;;;;;;;16.10;9.07;;;10.90;99.90;;;;;;5001519;28;20038;-96
2023/03/18 19:35:14;;;;;;;15.75;8.80;;;10.60;99.90;;;;;;5011544;28;20125;-95
2023/03/18 19:37:56;;;;;;;16.08;8.77;;;10.20;99.90;;;;;;5003867;28;20042;-96
2023/03/18 19:44:26;;;;;;;15.25;8.88;;;9.50;99.90;;;;;;5245853;23;20304;-93
2023/03/18 19:46:54;;;;;;;16.58;9.73;;;10.20;99.90;;;;;;5002912;28;20038;-93
2023/03/18 19:59:28;;;;;;;19.65;13.50;;;9.70;99.90;;;;;;4999063;28;20057;-94
2023/03/18 20:02:20;;;;;;;24.52;15.35;;;10.10;99.90;;;;;;4987166;28;20045;-94